Time,TemperatureF,DewpointF,PressureIn,WindDirection,WindDirectionDegrees,WindSpeedMPH,WindSpeedGustMPH,Humidity,HourlyPrecipIn,Conditions,Clouds,dailyrainin,SoftwareType,DateUTC
2013-12-04 00:14:00,50.5,50.2,29.71,SSW,202,0.0,-999.0,99,-99.99,,,0.00,Acu-Link.com,2013-12-04 05:14:00,
2013-12-04 00:30:00,50.4,50.1,29.70,SE,135,1.7,-999.0,99,-99.99,,,0.00,Acu-Link.com,2013-12-04 05:30:00,
2013-12-04 00:45:00,50.4,50.1,29.70,SSW,202,0.0,-999.0,99,-99.99,,,0.00,Acu-Link.com,2013-12-04 05:45:00,
2013-12-04 01:00:00,50.4,50.1,29.71,SW,225,0.0,-999.0,99,-99.99,,,0.00,Acu-Link.com,2013-12-04 06:00:00,
2013-12-04 01:15:00,50.4,50.1,29.72,WSW,247,0.0,-999.0,99,-99.99,,,0.00,Acu-Link.com,2013-12-04 06:15:00,
2013-12-04 01:30:00,50.4,50.1,29.72,West,270,0.0,-999.0,99,-99.99,,,0.00,Acu-Link.com,2013-12-04 06:30:00,
2013-12-04 01:45:00,50.4,50.1,29.72,West,270,0.0,-999.0,99,-99.99,,,0.00,Acu-Link.com,2013-12-04 06:45:00,
2013-12-04 02:00:00,50.2,49.9,29.72,NW,315,0.0,-999.0,99,-99.99,,,0.00,Acu-Link.com,2013-12-04 07:00:00,
2013-12-04 02:15:00,50.2,49.9,29.73,West,270,1.1,-999.0,99,-99.99,,,0.00,Acu-Link.com,2013-12-04 07:15:00,
2013-12-04 02:30:00,50.2,49.9,29.72,West,270,0.0,-999.0,99,-99.99,,,0.00,Acu-Link.com,2013-12-04 07:30:00,
2013-12-04 02:45:00,50.2,49.9,29.73,WSW,247,0.0,-999.0,99,-99.99,,,0.00,Acu-Link.com,2013-12-04 07:45:00,
2013-12-04 03:01:00,50.2,49.9,29.72,NNW,337,0.0,-999.0,99,-99.99,,,0.00,Acu-Link.com,2013-12-04 08:01:00,
2013-12-04 03:16:00,50.2,49.9,29.73,NE,45,0.0,-999.0,99,-99.99,,,0.00,Acu-Link.com,2013-12-04 08:16:00,
2013-12-04 03:31:00,49.8,49.5,29.72,SW,225,0.0,-999.0,99,-99.99,,,0.00,Acu-Link.com,2013-12-04 08:31:00,
2013-12-04 03:46:00,49.8,49.5,29.72,SW,225,1.1,-999.0,99,-99.99,,,0.00,Acu-Link.com,2013-12-04 08:46:00,
2013-12-04 04:01:00,49.8,49.5,29.71,NE,45,1.1,-999.0,99,-99.99,,,0.00,Acu-Link.com,2013-12-04 09:01:00,
2013-12-04 04:16:00,49.6,49.3,29.70,NW,315,0.0,-999.0,99,-99.99,,,0.00,Acu-Link.com,2013-12-04 09:16:00,
2013-12-04 04:31:00,49.6,49.3,29.72,West,270,0.0,-999.0,99,-99.99,,,0.00,Acu-Link.com,2013-12-04 09:31:00,
2013-12-04 04:46:00,49.8,49.5,29.71,West,270,0.0,-999.0,99,-99.99,,,0.00,Acu-Link.com,2013-12-04 09:46:00,
2013-12-04 05:01:00,50.0,49.7,29.73,NW,315,0.0,-999.0,99,-99.99,,,0.00,Acu-Link.com,2013-12-04 10:01:00,
2013-12-04 05:17:00,50.0,49.7,29.74,SW,225,0.0,-999.0,99,-99.99,,,0.00,Acu-Link.com,2013-12-04 10:17:00,
2013-12-04 05:32:00,50.0,49.7,29.75,West,270,1.1,-999.0,99,-99.99,,,0.00,Acu-Link.com,2013-12-04 10:32:00,
2013-12-04 05:47:00,50.0,49.7,29.75,NNW,337,0.0,-999.0,99,-99.99,,,0.00,Acu-Link.com,2013-12-04 10:47:00,
2013-12-04 06:02:00,50.0,49.7,29.74,NNE,22,0.0,-999.0,99,-99.99,,,0.00,Acu-Link.com,2013-12-04 11:02:00,
2013-12-04 06:17:00,50.0,49.7,29.75,NNW,337,0.0,-999.0,99,-99.99,,,0.00,Acu-Link.com,2013-12-04 11:17:00,
2013-12-04 06:32:00,50.0,49.7,29.76,West,270,0.0,-999.0,99,-99.99,,,0.00,Acu-Link.com,2013-12-04 11:32:00,
2013-12-04 06:47:00,50.2,49.9,29.76,NNE,22,0.0,-999.0,99,-99.99,,,0.00,Acu-Link.com,2013-12-04 11:47:00,
2013-12-04 07:02:00,50.2,49.9,29.76,NNW,337,0.0,-999.0,99,-99.99,,,0.00,Acu-Link.com,2013-12-04 12:02:00,
2013-12-04 07:17:00,50.2,49.9,29.76,WNW,292,0.0,-999.0,99,-99.99,,,0.00,Acu-Link.com,2013-12-04 12:17:00,
2013-12-04 07:33:00,50.2,49.9,29.76,ESE,112,0.0,-999.0,99,-99.99,,,0.00,Acu-Link.com,2013-12-04 12:33:00,
2013-12-04 07:48:00,50.4,50.1,29.76,SW,225,0.0,-999.0,99,-99.99,,,0.00,Acu-Link.com,2013-12-04 12:48:00,
2013-12-04 08:03:00,50.5,50.2,29.77,WNW,292,0.0,-999.0,99,-99.99,,,0.00,Acu-Link.com,2013-12-04 13:03:00,
2013-12-04 08:18:00,50.9,50.6,29.77,West,270,0.0,-999.0,99,-99.99,,,0.00,Acu-Link.com,2013-12-04 13:18:00,
2013-12-04 08:33:00,51.4,51.1,29.77,WNW,292,0.0,-999.0,99,-99.99,,,0.00,Acu-Link.com,2013-12-04 13:33:00,
2013-12-04 08:48:00,52.0,51.7,29.78,SW,225,0.0,-999.0,99,-99.99,,,0.00,Acu-Link.com,2013-12-04 13:48:00,
2013-12-04 09:03:00,52.5,52.2,29.79,SSW,202,0.0,-999.0,99,-99.99,,,0.00,Acu-Link.com,2013-12-04 14:03:00,
2013-12-04 09:18:00,53.4,53.1,29.80,SW,225,0.0,-999.0,99,-99.99,,,0.00,Acu-Link.com,2013-12-04 14:18:00,
2013-12-04 09:33:00,54.3,54.0,29.80,SSE,157,0.0,-999.0,99,-99.99,,,0.00,Acu-Link.com,2013-12-04 14:33:00,
2013-12-04 09:49:00,55.4,55.1,29.81,NW,315,0.0,-999.0,99,-99.99,,,0.00,Acu-Link.com,2013-12-04 14:49:00,
2013-12-04 10:04:00,56.5,55.4,29.82,WNW,292,0.0,-999.0,96,-99.99,,,0.00,Acu-Link.com,2013-12-04 15:04:00,
2013-12-04 10:19:00,57.4,55.4,29.82,SE,135,0.0,-999.0,93,-99.99,,,0.00,Acu-Link.com,2013-12-04 15:19:00,
2013-12-04 10:34:00,58.1,55.5,29.81,SW,225,0.0,-999.0,91,-99.99,,,0.00,Acu-Link.com,2013-12-04 15:34:00,
2013-12-04 10:49:00,58.1,55.2,29.82,SW,225,1.7,-999.0,90,-99.99,,,0.00,Acu-Link.com,2013-12-04 15:49:00,
2013-12-04 11:04:00,58.5,55.3,29.81,ESE,112,0.0,-999.0,89,-99.99,,,0.00,Acu-Link.com,2013-12-04 16:04:00,
2013-12-04 11:19:00,59.9,56.0,29.80,SSW,202,0.0,-999.0,87,-99.99,,,0.00,Acu-Link.com,2013-12-04 16:19:00,
2013-12-04 11:34:00,61.7,55.8,29.79,WSW,247,0.0,-999.0,81,-99.99,,,0.00,Acu-Link.com,2013-12-04 16:34:00,
2013-12-04 11:49:00,64.4,55.9,29.79,ESE,112,0.0,-999.0,74,-99.99,,,0.00,Acu-Link.com,2013-12-04 16:49:00,
2013-12-04 12:05:00,65.1,55.8,29.77,East,90,4.2,-999.0,72,-99.99,,,0.00,Acu-Link.com,2013-12-04 17:05:00,
2013-12-04 12:20:00,63.9,55.4,29.77,East,90,3.2,-999.0,74,-99.99,,,0.00,Acu-Link.com,2013-12-04 17:20:00,
2013-12-04 12:35:00,62.1,55.2,29.76,ESE,112,7.3,-999.0,78,-99.99,,,0.00,Acu-Link.com,2013-12-04 17:35:00,
2013-12-04 12:50:00,63.7,55.6,29.75,ESE,112,2.7,-999.0,75,-99.99,,,0.00,Acu-Link.com,2013-12-04 17:50:00,
2013-12-04 13:05:00,65.1,56.2,29.74,NNE,22,2.7,-999.0,73,-99.99,,,0.00,Acu-Link.com,2013-12-04 18:05:00,
2013-12-04 13:20:00,67.1,56.6,29.73,ESE,112,4.2,-999.0,69,-99.99,,,0.00,Acu-Link.com,2013-12-04 18:20:00,
2013-12-04 13:35:00,67.6,56.2,29.74,SW,225,3.2,-999.0,67,-99.99,,,0.00,Acu-Link.com,2013-12-04 18:35:00,
2013-12-04 13:50:00,67.5,56.6,29.73,SE,135,4.2,-999.0,68,-99.99,,,0.00,Acu-Link.com,2013-12-04 18:50:00,
2013-12-04 14:05:00,66.2,56.1,29.73,ESE,112,3.7,-999.0,70,-99.99,,,0.00,Acu-Link.com,2013-12-04 19:05:00,
2013-12-04 14:20:00,65.7,55.6,29.72,ESE,112,4.7,-999.0,70,-99.99,,,0.00,Acu-Link.com,2013-12-04 19:20:00,
2013-12-04 14:36:00,66.6,55.7,29.72,ESE,112,5.8,-999.0,68,-99.99,,,0.00,Acu-Link.com,2013-12-04 19:36:00,
2013-12-04 14:51:00,68.9,56.2,29.72,SSE,157,4.2,-999.0,64,-99.99,,,0.00,Acu-Link.com,2013-12-04 19:51:00,
2013-12-04 15:06:00,66.9,55.2,29.72,SSW,202,10.4,-999.0,66,-99.99,,,0.00,Acu-Link.com,2013-12-04 20:06:00,
2013-12-04 15:21:00,66.9,55.6,29.73,SE,135,5.3,-999.0,67,-99.99,,,0.00,Acu-Link.com,2013-12-04 20:21:00,
2013-12-04 15:36:00,65.7,55.6,29.74,North,0,4.7,-999.0,70,-99.99,,,0.00,Acu-Link.com,2013-12-04 20:36:00,
2013-12-04 15:51:00,65.7,56.0,29.73,North,0,6.3,-999.0,71,-99.99,,,0.00,Acu-Link.com,2013-12-04 20:51:00,
2013-12-04 16:06:00,65.7,56.0,29.73,WSW,247,4.7,-999.0,71,-99.99,,,0.00,Acu-Link.com,2013-12-04 21:06:00,
2013-12-04 16:21:00,64.8,55.2,29.75,SSE,157,5.3,-999.0,71,-99.99,,,0.00,Acu-Link.com,2013-12-04 21:21:00,
2013-12-04 16:36:00,64.0,55.2,29.75,SSW,202,2.7,-999.0,73,-99.99,,,0.00,Acu-Link.com,2013-12-04 21:36:00,
2013-12-04 16:52:00,62.4,55.1,29.76,SSE,157,5.3,-999.0,77,-99.99,,,0.00,Acu-Link.com,2013-12-04 21:52:00,
2013-12-04 17:07:00,61.0,54.8,29.76,ESE,112,0.0,-999.0,80,-99.99,,,0.00,Acu-Link.com,2013-12-04 22:07:00,
2013-12-04 17:22:00,59.7,54.5,29.77,SSE,157,4.2,-999.0,83,-99.99,,,0.00,Acu-Link.com,2013-12-04 22:22:00,
2013-12-04 17:37:00,58.5,54.3,29.76,ESE,112,2.7,-999.0,86,-99.99,,,0.00,Acu-Link.com,2013-12-04 22:37:00,
2013-12-04 17:52:00,57.9,54.4,29.77,East,90,2.2,-999.0,88,-99.99,,,0.00,Acu-Link.com,2013-12-04 22:52:00,
2013-12-04 18:07:00,57.4,54.2,29.78,ESE,112,2.7,-999.0,89,-99.99,,,0.00,Acu-Link.com,2013-12-04 23:07:00,
2013-12-04 18:23:00,57.2,54.3,29.77,ESE,112,2.2,-999.0,90,-99.99,,,0.00,Acu-Link.com,2013-12-04 23:23:00,
2013-12-04 18:38:00,57.0,54.4,29.79,SSW,202,2.7,-999.0,91,-99.99,,,0.00,Acu-Link.com,2013-12-04 23:38:00,
2013-12-04 18:53:00,57.2,54.6,29.78,SSE,157,1.7,-999.0,91,-99.99,,,0.00,Acu-Link.com,2013-12-04 23:53:00,
2013-12-04 19:08:00,57.0,54.7,29.79,WNW,292,0.0,-999.0,92,-99.99,,,0.00,Acu-Link.com,2013-12-05 00:08:00,
2013-12-04 19:23:00,57.0,54.7,29.79,ESE,112,2.7,-999.0,92,-99.99,,,0.00,Acu-Link.com,2013-12-05 00:23:00,
2013-12-04 19:38:00,57.4,55.1,29.79,ESE,112,0.0,-999.0,92,-99.99,,,0.00,Acu-Link.com,2013-12-05 00:38:00,
2013-12-04 19:53:00,57.6,55.3,29.80,SW,225,0.0,-999.0,92,-99.99,,,0.00,Acu-Link.com,2013-12-05 00:53:00,
2013-12-04 20:08:00,57.9,55.6,29.80,SSW,202,2.7,-999.0,92,-99.99,,,0.00,Acu-Link.com,2013-12-05 01:08:00,
2013-12-04 20:23:00,58.1,55.8,29.80,NNE,22,0.0,-999.0,92,-99.99,,,0.00,Acu-Link.com,2013-12-05 01:23:00,
2013-12-04 20:39:00,58.1,55.8,29.83,NW,315,1.1,-999.0,92,-99.99,,,0.00,Acu-Link.com,2013-12-05 01:39:00,
2013-12-04 20:55:00,58.1,55.8,29.82,WNW,292,0.0,-999.0,92,-99.99,,,0.00,Acu-Link.com,2013-12-05 01:55:00,
2013-12-04 21:10:00,58.1,55.8,29.81,SE,135,0.0,-999.0,92,-99.99,,,0.00,Acu-Link.com,2013-12-05 02:10:00,
2013-12-04 21:25:00,58.1,55.8,29.81,NW,315,0.0,-999.0,92,-99.99,,,0.00,Acu-Link.com,2013-12-05 02:25:00,
2013-12-04 21:40:00,58.1,55.8,29.82,ESE,112,0.0,-999.0,92,-99.99,,,0.00,Acu-Link.com,2013-12-05 02:40:00,
2013-12-04 21:55:00,58.1,55.8,29.82,East,90,0.0,-999.0,92,-99.99,,,0.00,Acu-Link.com,2013-12-05 02:55:00,
2013-12-04 22:10:00,58.3,56.0,29.81,NW,315,0.0,-999.0,92,-99.99,,,0.00,Acu-Link.com,2013-12-05 03:10:00,
2013-12-04 22:26:00,58.1,55.8,29.81,NW,315,0.0,-999.0,92,-99.99,,,0.00,Acu-Link.com,2013-12-05 03:26:00,
2013-12-04 22:41:00,58.1,55.8,29.83,West,270,0.0,-999.0,92,-99.99,,,0.00,Acu-Link.com,2013-12-05 03:41:00,
2013-12-04 22:56:00,58.1,55.8,29.83,North,0,0.0,-999.0,92,-99.99,,,0.00,Acu-Link.com,2013-12-05 03:56:00,
2013-12-04 23:11:00,58.3,56.3,29.85,SSW,202,0.0,-999.0,93,-99.99,,,0.00,Acu-Link.com,2013-12-05 04:11:00,
2013-12-04 23:26:00,58.3,56.3,29.83,East,90,0.0,-999.0,93,-99.99,,,0.00,Acu-Link.com,2013-12-05 04:26:00,
2013-12-04 23:41:00,58.5,56.5,29.83,SSE,157,3.2,-999.0,93,-99.99,,,0.00,Acu-Link.com,2013-12-05 04:41:00,
2013-12-04 23:56:00,58.6,56.6,29.83,SE,135,3.2,-999.0,93,-99.99,,,0.00,Acu-Link.com,2013-12-05 04:56:00,